createdAt,value
2023-01-17T00:02:47.776Z,2.93
2023-01-17T00:08:08.929Z,2.92
2023-01-17T00:13:11.705Z,3.03
2023-01-17T00:18:14.309Z,2.60
2023-01-17T00:23:37.697Z,2.80
2023-01-17T00:28:42.085Z,2.70
2023-01-17T00:33:44.970Z,2.70
2023-01-17T00:38:47.525Z,2.47
2023-01-17T00:44:08.627Z,2.60
2023-01-17T00:49:29.797Z,2.65
2023-01-17T00:54:50.892Z,3.08
2023-01-17T01:00:12.019Z,3.10
2023-01-17T01:05:34.236Z,2.58
2023-01-17T01:10:55.576Z,2.22
2023-01-17T01:16:20.489Z,2.70
2023-01-17T01:21:41.939Z,3.28
2023-01-17T01:27:03.166Z,2.33
2023-01-17T01:32:24.754Z,1.95
2023-01-17T01:37:27.474Z,1.75
2023-01-17T01:42:30.177Z,2.45
2023-01-17T01:47:39.014Z,2.17
2023-01-17T01:52:45.094Z,1.95
2023-01-17T01:57:51.125Z,2.25
2023-01-17T02:02:55.061Z,1.80
2023-01-17T02:08:03.671Z,1.27
2023-01-17T02:13:07.483Z,1.85
2023-01-17T02:18:43.358Z,2.50
2023-01-17T02:23:58.021Z,2.35
2023-01-17T02:29:18.293Z,1.90
2023-01-17T02:34:48.124Z,2.50
2023-01-17T02:39:58.554Z,2.38
2023-01-17T02:45:02.871Z,3.00
2023-01-17T02:50:16.442Z,2.60
2023-01-17T02:55:28.422Z,2.17
2023-01-17T03:00:37.145Z,2.97
2023-01-17T03:05:52.270Z,2.80
2023-01-17T03:10:55.565Z,2.40
2023-01-17T03:15:58.344Z,3.35
2023-01-17T03:21:02.153Z,2.53
2023-01-17T03:26:04.904Z,2.00
2023-01-17T03:31:07.858Z,2.28
2023-01-17T03:36:12.305Z,1.80
2023-01-17T03:41:14.954Z,2.63
2023-01-17T03:46:25.919Z,2.47
2023-01-17T03:51:28.649Z,2.40
2023-01-17T03:56:31.380Z,2.42
2023-01-17T04:01:34.194Z,1.40
2023-01-17T04:06:37.028Z,2.60
2023-01-17T04:11:39.733Z,1.92
2023-01-17T04:16:42.566Z,1.90
2023-01-17T04:21:45.256Z,2.83
2023-01-17T04:26:48.141Z,2.67
2023-01-17T04:31:51.079Z,2.72
2023-01-17T04:36:53.779Z,2.53
2023-01-17T04:41:56.557Z,2.20
2023-01-17T04:46:59.273Z,3.05
2023-01-17T04:52:01.877Z,1.58
2023-01-17T04:57:04.698Z,1.65
2023-01-17T05:02:07.386Z,2.63
2023-01-17T05:07:10.207Z,1.63
2023-01-17T05:12:13.003Z,2.35
2023-01-17T05:17:15.802Z,2.88
2023-01-17T05:22:18.705Z,1.60
2023-01-17T05:27:21.324Z,2.55
2023-01-17T05:32:24.063Z,2.80
2023-01-17T05:37:26.665Z,2.78
2023-01-17T05:42:29.354Z,2.40
2023-01-17T05:47:31.980Z,1.92
2023-01-17T05:52:34.620Z,2.17
2023-01-17T05:57:37.284Z,2.25
2023-01-17T06:02:40.110Z,1.80
2023-01-17T06:07:46.740Z,1.48
2023-01-17T06:12:49.877Z,1.60
2023-01-17T06:17:52.717Z,2.20
2023-01-17T06:22:55.691Z,2.08
2023-01-17T06:27:58.520Z,2.67
2023-01-17T06:33:01.248Z,1.65
2023-01-17T06:38:04.168Z,1.90
2023-01-17T06:43:06.978Z,1.73
2023-01-17T06:48:09.661Z,2.50
2023-01-17T06:53:12.553Z,2.97
2023-01-17T06:58:15.332Z,2.13
2023-01-17T07:03:23.444Z,1.90
2023-01-17T07:08:26.094Z,2.13
2023-01-17T07:13:29.289Z,2.67
2023-01-17T07:18:34.022Z,1.95
2023-01-17T07:23:36.663Z,1.50
2023-01-17T07:28:39.563Z,2.10
2023-01-17T07:33:42.200Z,2.15
2023-01-17T07:38:47.113Z,1.55
2023-01-17T07:43:49.945Z,2.22
2023-01-17T07:48:53.567Z,2.15
2023-01-17T07:53:56.334Z,2.22
2023-01-17T07:58:59.101Z,2.42
2023-01-17T08:04:01.866Z,2.25
2023-01-17T08:09:04.561Z,1.90
2023-01-17T08:14:07.223Z,2.03
2023-01-17T08:19:10.623Z,2.00
2023-01-17T08:24:14.415Z,1.13
2023-01-17T08:29:17.053Z,1.95
2023-01-17T08:34:19.824Z,1.90
2023-01-17T08:39:22.586Z,2.30
2023-01-17T08:44:25.458Z,1.67
2023-01-17T08:49:31.081Z,1.83
2023-01-17T08:54:33.856Z,2.17
2023-01-17T08:59:36.527Z,2.40
2023-01-17T09:04:40.848Z,1.83
2023-01-17T09:09:43.589Z,2.92
2023-01-17T09:14:46.642Z,3.08
2023-01-17T09:19:49.308Z,2.15
2023-01-17T09:24:52.122Z,2.30
2023-01-17T09:29:54.765Z,2.20
2023-01-17T09:35:01.111Z,2.40
2023-01-17T09:40:04.396Z,2.58
2023-01-17T09:45:15.728Z,1.73
2023-01-17T09:50:36.173Z,1.90
2023-01-17T09:55:54.211Z,3.20
2023-01-17T10:01:21.528Z,2.75
2023-01-17T10:06:35.155Z,3.08
2023-01-17T10:12:14.523Z,3.00
2023-01-17T10:17:36.750Z,1.40
2023-01-17T10:22:44.217Z,2.28
2023-01-17T10:27:59.433Z,2.20
2023-01-17T10:33:22.733Z,2.95
2023-01-17T10:38:35.105Z,2.47
2023-01-17T10:43:47.831Z,2.75
2023-01-17T10:48:53.061Z,2.53
2023-01-17T10:54:22.774Z,2.90
2023-01-17T10:59:32.301Z,2.92
2023-01-17T11:04:39.712Z,2.25
2023-01-17T11:09:44.847Z,2.80
2023-01-17T11:15:07.379Z,2.30
2023-01-17T11:20:17.475Z,2.20
2023-01-17T11:25:22.752Z,2.58
2023-01-17T11:30:29.740Z,1.95
2023-01-17T11:35:35.151Z,2.78
2023-01-17T11:40:47.427Z,2.80
2023-01-17T11:46:18.593Z,2.28
2023-01-17T11:51:26.360Z,2.92
2023-01-17T11:56:33.738Z,2.55
2023-01-17T12:02:15.970Z,2.45
2023-01-17T12:07:28.707Z,2.20
2023-01-17T12:13:00.475Z,3.05
2023-01-17T12:18:28.834Z,2.67
2023-01-17T12:23:45.059Z,2.47
2023-01-17T12:29:26.098Z,2.38
2023-01-17T12:34:32.714Z,2.75
2023-01-17T12:39:41.612Z,4.55
2023-01-17T12:45:06.429Z,2.83
2023-01-17T12:50:36.919Z,2.40
2023-01-17T12:55:50.191Z,3.55
2023-01-17T13:01:01.377Z,2.08
2023-01-17T13:06:06.876Z,2.65
2023-01-17T13:16:24.967Z,3.75
2023-01-17T13:21:30.454Z,2.83
2023-01-17T13:26:41.845Z,3.10
2023-01-17T13:32:07.714Z,3.08
2023-01-17T13:37:22.862Z,2.95
2023-01-17T13:42:46.775Z,2.95
2023-01-17T13:47:49.472Z,3.60
2023-01-17T13:52:58.380Z,3.03
2023-01-17T13:58:01.198Z,2.40
2023-01-17T14:03:03.986Z,2.70
2023-01-17T14:08:16.670Z,2.55
2023-01-17T14:13:34.547Z,3.35
2023-01-17T14:18:37.163Z,4.22
2023-01-17T14:23:56.310Z,4.70
2023-01-17T14:29:00.528Z,5.55
2023-01-17T14:34:13.771Z,4.15
2023-01-17T14:39:22.787Z,5.15
2023-01-17T14:44:25.448Z,3.92
2023-01-17T14:49:28.212Z,3.85
2023-01-17T14:54:30.836Z,3.17
2023-01-17T14:59:33.683Z,4.00
2023-01-17T15:04:40.037Z,6.35
2023-01-17T15:09:43.758Z,6.05
2023-01-17T15:14:47.069Z,4.43
2023-01-17T15:19:54.407Z,3.85
2023-01-17T15:24:57.539Z,4.03
2023-01-17T15:30:02.839Z,4.40
2023-01-17T15:35:08.343Z,3.50
2023-01-17T15:45:29.695Z,3.38
2023-01-17T15:50:36.780Z,4.10
2023-01-17T15:55:40.414Z,4.45
2023-01-17T16:00:47.320Z,5.72
2023-01-17T16:05:50.922Z,3.60
2023-01-17T16:11:02.642Z,3.92
2023-01-17T16:16:13.641Z,4.22
2023-01-17T16:21:25.749Z,5.63
2023-01-17T16:26:29.514Z,5.22
2023-01-17T16:31:34.063Z,3.08
2023-01-17T16:36:37.242Z,4.22
2023-01-17T16:41:39.890Z,4.20
2023-01-17T16:46:42.723Z,4.35
2023-01-17T16:51:48.246Z,3.38
2023-01-17T16:56:51.162Z,3.65
2023-01-17T17:01:54.120Z,3.47
2023-01-17T17:06:56.910Z,3.45
2023-01-17T17:11:59.627Z,3.80
2023-01-17T17:17:02.339Z,3.88
2023-01-17T17:22:06.836Z,3.92
2023-01-17T17:27:09.475Z,4.47
2023-01-17T17:32:12.356Z,3.92
2023-01-17T17:37:17.877Z,3.95
2023-01-17T17:42:20.996Z,4.18
2023-01-17T17:47:24.436Z,3.63
2023-01-17T17:52:28.363Z,3.42
2023-01-17T17:57:31.121Z,5.93
2023-01-17T18:02:33.931Z,4.85
2023-01-17T18:07:36.889Z,3.35
2023-01-17T18:12:39.518Z,2.80
2023-01-17T18:17:42.178Z,3.03
2023-01-17T18:22:44.913Z,2.92
2023-01-17T18:27:47.496Z,2.90
2023-01-17T18:32:50.279Z,4.20
2023-01-17T18:37:53.113Z,5.28
2023-01-17T18:42:56.290Z,4.38
2023-01-17T18:47:59.962Z,4.53
2023-01-17T18:53:02.612Z,3.20
2023-01-17T18:58:05.231Z,8.80
2023-01-17T19:03:07.854Z,7.88
2023-01-17T19:08:10.829Z,3.55
2023-01-17T19:13:13.514Z,2.72
2023-01-17T19:18:16.226Z,2.78
2023-01-17T19:23:18.954Z,3.70
2023-01-17T19:28:22.295Z,2.28
2023-01-17T19:33:25.118Z,2.28
2023-01-17T19:38:28.489Z,2.35
2023-01-17T19:43:31.137Z,2.70
2023-01-17T19:48:33.765Z,2.90
2023-01-17T19:53:37.571Z,3.40
2023-01-17T19:58:40.256Z,4.53
2023-01-17T20:03:47.436Z,4.47
2023-01-17T20:08:50.250Z,5.90
2023-01-17T20:13:55.360Z,6.45
2023-01-17T20:18:59.449Z,6.00
2023-01-17T20:24:05.183Z,5.20
2023-01-17T20:29:12.347Z,3.35
2023-01-17T20:34:19.030Z,2.83
2023-01-17T20:39:21.649Z,2.22
2023-01-17T20:44:24.728Z,2.05
2023-01-17T20:49:27.499Z,2.42
2023-01-17T20:54:30.204Z,2.30
2023-01-17T20:59:32.917Z,3.05
2023-01-17T21:04:35.682Z,2.00
2023-01-17T21:09:38.370Z,3.33
2023-01-17T21:14:43.315Z,3.00
2023-01-17T21:19:45.978Z,2.40
2023-01-17T21:24:48.856Z,3.40
2023-01-17T21:29:53.347Z,2.90
2023-01-17T21:40:00.523Z,4.03
2023-01-17T21:50:05.968Z,3.45
2023-01-17T21:55:27.479Z,2.40
2023-01-17T22:00:30.268Z,3.10
2023-01-17T22:05:34.279Z,3.67
2023-01-17T22:10:44.819Z,2.75
2023-01-17T22:15:58.951Z,2.35
2023-01-17T22:21:08.176Z,2.13
2023-01-17T22:26:12.142Z,2.05
2023-01-17T22:31:26.226Z,2.53
2023-01-17T22:36:30.207Z,2.20
2023-01-17T22:41:35.063Z,2.45
2023-01-17T22:46:38.735Z,2.28
2023-01-17T22:51:41.514Z,2.33
2023-01-17T22:56:44.164Z,2.28
2023-01-17T23:01:46.863Z,2.53
2023-01-17T23:06:49.707Z,2.40
2023-01-17T23:11:54.450Z,2.30
2023-01-17T23:17:21.124Z,1.73
2023-01-17T23:22:27.227Z,2.17
2023-01-17T23:27:52.768Z,2.30
2023-01-17T23:32:58.013Z,2.30
2023-01-17T23:38:19.765Z,2.60
2023-01-17T23:43:25.370Z,2.45
2023-01-17T23:48:28.212Z,2.47
2023-01-17T23:53:30.977Z,2.08
2023-01-17T23:58:34.306Z,2.25
